Time;durP1;ratioP1;P1;durP2;ratioP2;P2;SDS_P1;SDS_P2;PMS_P1;PMS_P2;Temp;Humidity;BMP_temperature;BMP_pressure;BME280_temperature;BME280_humidity;BME280_pressure;Samples;Min_cycle;Max_cycle;Signal;HPM_P1;HPM_P2
2022/07/14 00:02:04;;;;;;;7.13;3.58;;;15.00;79.40;;;;;;5114017;28;20395;-78
2022/07/14 00:04:29;;;;;;;10.50;4.82;;;15.00;79.30;;;;;;5114010;28;20092;-76
2022/07/14 00:06:55;;;;;;;8.18;3.80;;;15.00;79.40;;;;;;5114094;28;20067;-77
2022/07/14 00:09:21;;;;;;;8.55;4.10;;;15.00;79.50;;;;;;5113870;28;20042;-76
2022/07/14 00:11:46;;;;;;;13.13;4.25;;;15.00;79.40;;;;;;5080303;28;20031;-77
2022/07/14 00:14:12;;;;;;;8.40;3.95;;;15.00;79.40;;;;;;5079926;28;20483;-76
2022/07/14 00:16:38;;;;;;;10.85;4.13;;;15.10;79.50;;;;;;5080075;28;20104;-78
2022/07/14 00:19:03;;;;;;;11.52;4.00;;;15.00;79.70;;;;;;5113577;28;20050;-75
2022/07/14 00:21:29;;;;;;;9.88;3.83;;;15.10;79.70;;;;;;5079836;28;20054;-74
2022/07/14 00:23:55;;;;;;;7.60;4.10;;;15.10;79.60;;;;;;5110296;28;20060;-79
2022/07/14 00:26:21;;;;;;;8.57;3.83;;;15.10;79.60;;;;;;5110184;28;20128;-75
2022/07/14 00:28:46;;;;;;;10.95;4.30;;;15.00;80.10;;;;;;5110229;28;20067;-76
2022/07/14 00:31:12;;;;;;;10.65;4.63;;;15.00;79.90;;;;;;5110100;28;20044;-76
2022/07/14 00:33:39;;;;;;;12.98;5.07;;;15.00;79.80;;;;;;5110079;28;20089;-77
2022/07/14 00:36:06;;;;;;;10.50;4.25;;;15.00;80.00;;;;;;5110141;28;20051;-76
2022/07/14 00:38:32;;;;;;;11.05;3.85;;;14.90;80.00;;;;;;5076469;28;20036;-74
2022/07/14 00:40:58;;;;;;;7.57;4.05;;;14.90;80.00;;;;;;5109856;28;20483;-75
2022/07/14 00:43:24;;;;;;;12.43;4.50;;;14.80;80.10;;;;;;5109447;28;20051;-75
2022/07/14 00:45:50;;;;;;;10.45;4.22;;;14.80;80.20;;;;;;5109761;28;20551;-77
2022/07/14 00:48:19;;;;;;;12.15;4.50;;;14.80;80.30;;;;;;5110224;28;20156;-79
2022/07/14 00:50:45;;;;;;;11.90;4.00;;;14.70;80.80;;;;;;5109832;28;20036;-78
2022/07/14 00:53:12;;;;;;;13.18;5.22;;;14.70;80.80;;;;;;5110075;28;20039;-74
2022/07/14 00:55:42;;;;;;;9.57;4.30;;;14.70;80.80;;;;;;5109762;28;20050;-75
2022/07/14 00:58:09;;;;;;;8.35;4.03;;;14.60;81.10;;;;;;5110075;28;20040;-77
2022/07/14 01:00:35;;;;;;;10.90;4.10;;;14.50;81.30;;;;;;5109870;28;20080;-75
2022/07/14 01:03:01;;;;;;;14.45;5.03;;;14.50;81.30;;;;;;5109815;28;20549;-78
2022/07/14 01:05:26;;;;;;;9.45;4.63;;;14.40;81.40;;;;;;5109617;28;20414;-75
2022/07/14 01:07:53;;;;;;;8.75;4.05;;;14.40;81.60;;;;;;5059080;28;20071;-76
2022/07/14 01:10:19;;;;;;;10.48;3.85;;;14.40;81.50;;;;;;5093719;28;20048;-77
2022/07/14 01:12:46;;;;;;;11.10;4.30;;;14.40;81.70;;;;;;5093761;28;20121;-77
2022/07/14 01:15:20;;;;;;;7.40;4.22;;;14.30;82.20;;;;;;5093518;28;20040;-73
2022/07/14 01:17:47;;;;;;;10.52;4.28;;;14.30;81.90;;;;;;5109745;28;20425;-76
2022/07/14 01:20:14;;;;;;;8.55;4.75;;;14.20;82.10;;;;;;5109294;28;20476;-75
2022/07/14 01:22:40;;;;;;;9.43;3.88;;;14.10;82.10;;;;;;5075182;28;20052;-76
2022/07/14 01:25:06;;;;;;;7.15;4.13;;;14.00;82.20;;;;;;5109357;28;20044;-76
2022/07/14 01:27:33;;;;;;;8.30;4.32;;;14.00;82.40;;;;;;5109289;28;20115;-76
2022/07/14 01:29:59;;;;;;;11.23;4.85;;;13.90;82.50;;;;;;5092178;28;20082;-75
2022/07/14 01:32:25;;;;;;;8.75;4.00;;;14.00;82.40;;;;;;5109574;28;20032;-76
2022/07/14 01:34:52;;;;;;;10.52;4.00;;;13.90;82.50;;;;;;5109450;28;20564;-75
2022/07/14 01:37:18;;;;;;;7.10;4.00;;;13.90;82.50;;;;;;5109206;28;20048;-76
2022/07/14 01:39:44;;;;;;;12.23;4.13;;;13.90;82.40;;;;;;5075491;28;20062;-77
2022/07/14 01:42:09;;;;;;;10.40;4.13;;;14.00;82.30;;;;;;5109130;28;20456;-75
2022/07/14 01:44:35;;;;;;;10.80;4.30;;;14.00;82.40;;;;;;5109032;28;20048;-75
2022/07/14 01:47:01;;;;;;;9.80;3.80;;;13.90;82.50;;;;;;5109013;28;20519;-75
2022/07/14 01:49:27;;;;;;;13.60;4.85;;;13.90;82.60;;;;;;5058664;28;20064;-74
2022/07/14 01:51:53;;;;;;;14.95;4.63;;;13.90;82.50;;;;;;5092183;28;20036;-73
2022/07/14 01:54:18;;;;;;;10.82;4.57;;;13.90;82.50;;;;;;5108954;28;20190;-74
2022/07/14 01:56:44;;;;;;;7.78;4.10;;;13.90;82.90;;;;;;5061762;28;20040;-74
2022/07/14 01:59:10;;;;;;;11.50;4.40;;;13.80;83.10;;;;;;5113350;28;20043;-73
2022/07/14 02:01:42;;;;;;;8.90;4.05;;;13.80;82.80;;;;;;5113376;28;20055;-75
2022/07/14 02:04:13;;;;;;;10.52;3.95;;;13.80;82.70;;;;;;5112988;28;20051;-75
2022/07/14 02:06:44;;;;;;;6.70;3.80;;;13.90;83.00;;;;;;5113033;28;20036;-73
2022/07/14 02:09:10;;;;;;;10.05;3.97;;;13.80;83.00;;;;;;5113026;28;20039;-76
2022/07/14 02:14:21;;;;;;;8.82;3.75;;;13.70;82.90;;;;;;5095888;28;20051;-73
2022/07/14 02:16:47;;;;;;;9.23;3.85;;;13.70;82.90;;;;;;5078850;28;20051;-74
2022/07/14 02:19:13;;;;;;;10.90;4.43;;;13.80;82.90;;;;;;5112850;28;20048;-75
2022/07/14 02:21:40;;;;;;;7.60;4.00;;;13.80;82.80;;;;;;5095594;28;20123;-75
2022/07/14 02:24:09;;;;;;;10.88;4.20;;;13.80;82.80;;;;;;5095388;28;20063;-72
2022/07/14 02:26:36;;;;;;;10.13;3.40;;;13.70;82.90;;;;;;5078680;28;20555;-75
2022/07/14 02:29:04;;;;;;;10.73;4.45;;;13.70;83.10;;;;;;5078699;28;20036;-77
2022/07/14 02:31:31;;;;;;;10.38;4.45;;;13.70;83.00;;;;;;5112483;28;20071;-76
2022/07/14 02:33:57;;;;;;;6.65;3.53;;;13.70;83.00;;;;;;5112592;28;20048;-75
2022/07/14 02:36:23;;;;;;;10.13;4.43;;;13.70;82.80;;;;;;5078511;28;20040;-76
2022/07/14 02:38:49;;;;;;;11.15;4.15;;;13.70;82.90;;;;;;5062058;28;20122;-76
2022/07/14 02:41:15;;;;;;;12.88;4.05;;;13.60;82.90;;;;;;5078688;28;20159;-76
2022/07/14 02:43:40;;;;;;;11.00;4.60;;;13.60;83.00;;;;;;5112414;28;20131;-76
2022/07/14 02:46:06;;;;;;;10.18;5.20;;;13.50;83.40;;;;;;5095347;28;20044;-75
2022/07/14 02:48:32;;;;;;;7.90;5.00;;;13.50;83.30;;;;;;5078324;28;20107;-75
2022/07/14 02:51:00;;;;;;;14.65;5.47;;;13.50;83.50;;;;;;5112193;28;20040;-75
2022/07/14 02:53:25;;;;;;;13.40;5.25;;;13.50;83.60;;;;;;5112134;28;20047;-77
2022/07/14 02:55:51;;;;;;;12.77;4.57;;;13.40;84.10;;;;;;5111977;28;20085;-75
2022/07/14 02:58:18;;;;;;;9.27;4.22;;;13.40;83.60;;;;;;5112085;28;20127;-74
2022/07/14 03:00:44;;;;;;;9.43;4.13;;;13.20;84.50;;;;;;5111971;28;20055;-74
2022/07/14 03:03:09;;;;;;;14.13;4.38;;;13.20;83.90;;;;;;5078194;28;20044;-77
2022/07/14 03:05:35;;;;;;;7.70;3.65;;;13.20;84.10;;;;;;5111993;28;20047;-74
2022/07/14 03:08:01;;;;;;;10.20;4.15;;;13.10;84.20;;;;;;5077088;28;20044;-79
2022/07/14 03:10:26;;;;;;;9.13;4.63;;;13.10;84.20;;;;;;5078029;28;20036;-74
2022/07/14 03:12:53;;;;;;;9.43;4.13;;;13.10;84.30;;;;;;5111846;28;20128;-74
2022/07/14 03:15:19;;;;;;;8.32;4.65;;;13.10;84.40;;;;;;5111829;28;20059;-75
2022/07/14 03:17:45;;;;;;;5.90;3.97;;;13.10;84.30;;;;;;5077875;28;20055;-74
2022/07/14 03:20:12;;;;;;;9.63;4.18;;;13.10;84.60;;;;;;5111437;28;20466;-76
2022/07/14 03:22:38;;;;;;;10.90;4.60;;;13.10;84.80;;;;;;5111289;28;20070;-75
2022/07/14 03:25:05;;;;;;;11.73;4.97;;;13.10;84.60;;;;;;5094604;28;20052;-75
2022/07/14 03:27:32;;;;;;;11.75;4.68;;;13.00;85.10;;;;;;5060768;28;20478;-77
2022/07/14 03:29:58;;;;;;;10.48;4.30;;;13.10;85.00;;;;;;5111121;28;20508;-74
2022/07/14 03:32:24;;;;;;;9.30;4.40;;;13.10;85.10;;;;;;5077552;28;20095;-78
2022/07/14 03:34:50;;;;;;;7.72;4.25;;;13.10;84.90;;;;;;5111622;28;20044;-74
2022/07/14 03:37:15;;;;;;;6.38;4.50;;;13.10;84.90;;;;;;5111545;28;20043;-74
2022/07/14 03:39:41;;;;;;;10.38;5.00;;;13.20;84.70;;;;;;5111257;28;20486;-76
2022/07/14 03:42:07;;;;;;;11.50;4.60;;;13.20;84.80;;;;;;5077381;28;20044;-77
2022/07/14 03:44:32;;;;;;;10.07;5.40;;;13.10;85.00;;;;;;5111044;28;20032;-75
2022/07/14 03:46:58;;;;;;;11.23;6.35;;;13.10;85.00;;;;;;5111183;28;20044;-75
2022/07/14 03:49:24;;;;;;;11.50;4.45;;;13.10;84.90;;;;;;5111186;28;20047;-76
2022/07/14 03:51:50;;;;;;;12.32;5.63;;;13.10;85.10;;;;;;5111221;28;20139;-75
2022/07/14 03:54:15;;;;;;;17.02;9.25;;;13.10;85.50;;;;;;5111024;28;20127;-76
2022/07/14 03:56:41;;;;;;;8.77;4.82;;;13.00;86.60;;;;;;5077178;28;20047;-74
2022/07/14 03:59:08;;;;;;;8.70;4.95;;;13.00;85.90;;;;;;5111120;28;20054;-77
2022/07/14 04:01:33;;;;;;;8.48;4.53;;;13.00;85.90;;;;;;5076956;28;20097;-77
2022/07/14 04:03:59;;;;;;;10.13;5.28;;;13.00;85.80;;;;;;5093770;28;20039;-73
2022/07/14 04:06:25;;;;;;;8.65;4.25;;;13.00;86.00;;;;;;5110913;28;20434;-75
2022/07/14 04:08:50;;;;;;;11.38;5.47;;;13.00;85.80;;;;;;5093571;28;20036;-76
2022/07/14 04:11:16;;;;;;;12.35;4.80;;;13.00;85.90;;;;;;5110435;28;20048;-76
2022/07/14 04:13:42;;;;;;;7.65;3.92;;;13.00;86.20;;;;;;5110740;28;20036;-77
2022/07/14 04:16:08;;;;;;;11.70;4.22;;;13.00;86.10;;;;;;5110376;28;20077;-77
2022/07/14 04:18:33;;;;;;;7.35;3.83;;;13.10;86.10;;;;;;5110815;28;20073;-75
2022/07/14 04:20:59;;;;;;;13.85;3.88;;;13.00;86.00;;;;;;5110398;28;20380;-78
2022/07/14 04:23:25;;;;;;;6.35;3.72;;;13.10;86.00;;;;;;5110357;28;20048;-77
2022/07/14 04:25:51;;;;;;;10.68;3.60;;;13.00;86.10;;;;;;5093393;28;20072;-75
2022/07/14 04:28:17;;;;;;;9.02;3.63;;;13.10;86.00;;;;;;5076694;28;20032;-75
2022/07/14 04:30:43;;;;;;;13.45;4.95;;;13.10;86.10;;;;;;5076449;28;20119;-76
2022/07/14 04:33:09;;;;;;;6.15;3.67;;;13.20;85.90;;;;;;5076624;28;20582;-77
2022/07/14 04:35:38;;;;;;;8.18;3.88;;;13.20;85.90;;;;;;5110181;28;20040;-75
2022/07/14 04:38:04;;;;;;;7.72;3.47;;;13.30;85.80;;;;;;5110110;28;20044;-76
2022/07/14 04:40:30;;;;;;;7.65;3.42;;;13.40;85.80;;;;;;5110060;28;20047;-76
2022/07/14 04:42:56;;;;;;;9.85;3.67;;;13.50;85.70;;;;;;5109997;28;20189;-77
2022/07/14 04:45:22;;;;;;;9.40;4.18;;;13.50;85.60;;;;;;5110031;28;20040;-76
2022/07/14 04:47:49;;;;;;;9.35;2.97;;;13.60;85.50;;;;;;5075910;28;20127;-77
2022/07/14 04:52:59;;;;;;;7.50;3.33;;;13.70;85.30;;;;;;5092837;28;20048;-77
2022/07/14 04:55:25;;;;;;;8.80;3.63;;;13.80;85.30;;;;;;5110067;28;20040;-78
2022/07/14 04:57:51;;;;;;;7.60;2.95;;;13.90;85.20;;;;;;5093922;28;20033;-75
2022/07/14 05:00:16;;;;;;;8.98;3.60;;;14.00;85.10;;;;;;5109775;28;20507;-78
2022/07/14 05:02:42;;;;;;;9.20;3.30;;;14.10;84.90;;;;;;5109448;28;20486;-75
2022/07/14 05:05:09;;;;;;;8.20;3.03;;;14.10;84.80;;;;;;5109462;28;20040;-78
2022/07/14 05:07:34;;;;;;;6.22;3.17;;;14.20;84.50;;;;;;5075898;28;20480;-76
2022/07/14 05:10:01;;;;;;;8.10;3.40;;;14.30;84.60;;;;;;5109403;28;20119;-74
2022/07/14 05:12:27;;;;;;;10.27;2.80;;;14.30;84.50;;;;;;5109472;28;20067;-74
2022/07/14 05:14:53;;;;;;;6.93;2.45;;;14.40;84.60;;;;;;5109643;28;20506;-75
2022/07/14 05:17:19;;;;;;;10.02;3.95;;;14.50;84.30;;;;;;5075835;28;20115;-74
2022/07/14 05:19:46;;;;;;;7.97;3.38;;;14.50;84.00;;;;;;5109403;28;20044;-74
2022/07/14 05:22:12;;;;;;;7.70;3.90;;;14.60;83.80;;;;;;5077146;28;20462;-75
2022/07/14 05:24:38;;;;;;;11.93;3.70;;;14.60;84.00;;;;;;5095594;28;20126;-76
2022/07/14 05:27:04;;;;;;;10.60;3.78;;;14.70;84.20;;;;;;5112986;28;20131;-76
2022/07/14 05:29:29;;;;;;;7.70;2.50;;;14.70;83.90;;;;;;5112448;28;20039;-76
2022/07/14 05:31:57;;;;;;;9.77;3.15;;;14.80;83.70;;;;;;5095516;28;20042;-76
2022/07/14 05:34:23;;;;;;;6.90;2.70;;;14.80;83.80;;;;;;5095982;28;20494;-77
2022/07/14 05:36:48;;;;;;;12.68;3.55;;;14.90;83.50;;;;;;5112926;28;20043;-74
2022/07/14 05:39:14;;;;;;;7.70;3.35;;;15.00;83.60;;;;;;5079104;28;20046;-77
2022/07/14 05:41:41;;;;;;;7.07;3.30;;;15.00;83.40;;;;;;5112591;28;20122;-76
2022/07/14 05:44:07;;;;;;;5.35;2.30;;;15.20;83.30;;;;;;5112473;28;20044;-74
2022/07/14 05:46:33;;;;;;;5.55;2.60;;;15.20;83.30;;;;;;5112390;28;20040;-78
2022/07/14 05:49:01;;;;;;;6.28;2.20;;;15.30;82.80;;;;;;5112416;28;20043;-75
2022/07/14 05:51:27;;;;;;;5.28;2.97;;;15.40;82.60;;;;;;5078779;28;20039;-75
2022/07/14 05:53:53;;;;;;;9.40;2.70;;;15.50;82.40;;;;;;5078559;28;20051;-74
2022/07/14 05:56:18;;;;;;;6.65;2.47;;;15.50;82.30;;;;;;5112690;28;20039;-75
2022/07/14 05:58:45;;;;;;;8.65;2.80;;;15.60;82.40;;;;;;5112187;28;20039;-76
2022/07/14 06:01:13;;;;;;;8.32;2.47;;;15.70;82.40;;;;;;5112072;28;20495;-75
2022/07/14 06:03:39;;;;;;;7.05;2.22;;;15.80;82.40;;;;;;5078489;28;20072;-75
2022/07/14 06:06:07;;;;;;;7.28;2.53;;;15.80;82.30;;;;;;5113455;28;20511;-75
2022/07/14 06:08:33;;;;;;;9.00;2.90;;;16.00;82.30;;;;;;5113458;28;20035;-76
2022/07/14 06:10:59;;;;;;;7.03;1.98;;;16.00;82.20;;;;;;5095245;28;20047;-76
2022/07/14 06:13:27;;;;;;;6.15;2.28;;;16.10;82.10;;;;;;5078672;28;20079;-75
2022/07/14 06:15:55;;;;;;;7.40;2.15;;;16.20;82.00;;;;;;5112106;28;20048;-74
2022/07/14 06:18:20;;;;;;;5.28;2.05;;;16.20;81.50;;;;;;5095216;28;20043;-76
2022/07/14 06:20:47;;;;;;;7.85;2.28;;;16.30;81.10;;;;;;5095139;28;20046;-76
2022/07/14 06:23:14;;;;;;;5.22;1.58;;;16.40;80.80;;;;;;5112980;28;20059;-76
2022/07/14 06:25:40;;;;;;;5.32;2.20;;;16.40;80.80;;;;;;5113257;28;20040;-77
2022/07/14 06:28:06;;;;;;;4.95;1.52;;;16.60;80.80;;;;;;5078291;28;20369;-75
2022/07/14 06:30:32;;;;;;;4.72;1.52;;;16.60;80.20;;;;;;5112033;28;20051;-76
2022/07/14 06:32:58;;;;;;;3.83;1.25;;;16.70;80.10;;;;;;5095208;28;20047;-76
2022/07/14 06:35:24;;;;;;;6.05;1.58;;;16.80;79.60;;;;;;5098866;28;20044;-77
2022/07/14 06:37:53;;;;;;;4.97;1.40;;;16.90;79.30;;;;;;5112326;28;20396;-77
2022/07/14 06:40:19;;;;;;;6.70;2.40;;;17.00;78.90;;;;;;5095095;28;20119;-75
2022/07/14 06:42:45;;;;;;;6.28;1.80;;;17.00;78.80;;;;;;5096848;28;20563;-73
2022/07/14 06:45:11;;;;;;;4.93;1.10;;;17.10;78.70;;;;;;5081722;28;20040;-75
2022/07/14 06:47:37;;;;;;;5.28;1.38;;;17.30;78.60;;;;;;5115536;28;20491;-77
2022/07/14 06:50:05;;;;;;;4.57;1.15;;;17.30;78.40;;;;;;5115497;28;20047;-75
2022/07/14 06:52:31;;;;;;;4.78;1.42;;;17.40;78.20;;;;;;5098634;28;20046;-75
2022/07/14 06:55:00;;;;;;;5.55;1.30;;;17.40;77.90;;;;;;5115602;28;20391;-76
2022/07/14 06:57:26;;;;;;;6.13;1.27;;;17.50;76.90;;;;;;5098293;28;20096;-74
2022/07/14 06:59:53;;;;;;;5.28;1.00;;;17.60;76.30;;;;;;5098117;28;20534;-73
2022/07/14 07:02:19;;;;;;;5.05;1.35;;;17.70;76.20;;;;;;5098412;28;20054;-74
2022/07/14 07:04:47;;;;;;;4.22;1.38;;;17.80;76.10;;;;;;5081288;28;20071;-72
2022/07/14 07:07:12;;;;;;;6.57;1.20;;;17.80;75.50;;;;;;5098542;28;20036;-73
2022/07/14 07:09:38;;;;;;;3.05;0.80;;;17.80;74.90;;;;;;5098128;28;20089;-78
2022/07/14 07:12:05;;;;;;;1.55;0.85;;;17.90;74.60;;;;;;5081731;28;20036;-75
2022/07/14 07:14:30;;;;;;;9.02;1.75;;;17.90;74.30;;;;;;5097940;28;20044;-77
2022/07/14 07:16:56;;;;;;;3.30;1.45;;;17.90;74.40;;;;;;5098138;28;20127;-76
2022/07/14 07:19:22;;;;;;;2.88;0.75;;;18.00;74.70;;;;;;5097884;28;20035;-77
2022/07/14 07:21:48;;;;;;;2.67;0.70;;;18.10;73.20;;;;;;5097954;28;20096;-76
2022/07/14 07:24:14;;;;;;;4.15;0.95;;;18.10;71.70;;;;;;5097638;28;20052;-76
2022/07/14 07:26:41;;;;;;;2.72;0.90;;;18.20;71.50;;;;;;5097910;28;20075;-74
2022/07/14 07:29:08;;;;;;;4.03;1.20;;;18.30;71.20;;;;;;5114893;28;20370;-74
2022/07/14 07:31:37;;;;;;;3.45;0.70;;;18.30;71.10;;;;;;5098050;28;20035;-75
2022/07/14 07:34:03;;;;;;;4.40;1.00;;;18.40;70.60;;;;;;5097797;28;20035;-74
2022/07/14 07:36:28;;;;;;;4.82;0.80;;;18.40;70.50;;;;;;5081086;28;20043;-76
2022/07/14 07:38:54;;;;;;;1.33;0.55;;;18.50;70.70;;;;;;5097737;28;20051;-77
2022/07/14 07:41:20;;;;;;;3.25;0.70;;;18.60;70.00;;;;;;5080821;28;20368;-76
2022/07/14 07:43:46;;;;;;;2.92;0.65;;;18.70;70.30;;;;;;5097628;28;20043;-75
2022/07/14 07:46:11;;;;;;;5.28;1.08;;;18.80;70.20;;;;;;5114897;28;20093;-75
2022/07/14 07:48:37;;;;;;;2.25;0.82;;;18.80;69.80;;;;;;5097614;28;20550;-74
2022/07/14 07:51:03;;;;;;;2.67;0.70;;;18.90;69.40;;;;;;5114296;28;20448;-76
2022/07/14 07:53:28;;;;;;;2.28;0.80;;;18.80;69.00;;;;;;5096712;28;20039;-75
2022/07/14 07:55:54;;;;;;;0.95;0.50;;;18.90;69.20;;;;;;5097441;28;20056;-75
2022/07/14 07:58:21;;;;;;;2.50;0.70;;;18.90;68.60;;;;;;5113435;28;20036;-76
2022/07/14 08:00:47;;;;;;;3.25;0.80;;;18.90;67.70;;;;;;5086479;27;20050;-76
2022/07/14 08:03:14;;;;;;;2.45;0.60;;;18.90;67.00;;;;;;5087126;27;20039;-75
2022/07/14 08:05:43;;;;;;;1.42;0.70;;;18.90;66.60;;;;;;5086463;27;20039;-76
2022/07/14 08:08:09;;;;;;;3.00;0.75;;;18.90;66.10;;;;;;5104060;27;20390;-77
2022/07/14 08:10:39;;;;;;;4.38;0.70;;;18.90;67.00;;;;;;5100488;27;20043;-77
2022/07/14 08:13:05;;;;;;;2.33;0.50;;;19.00;66.80;;;;;;5084770;27;20122;-75
2022/07/14 08:15:30;;;;;;;3.15;0.63;;;19.10;65.60;;;;;;5084235;27;20055;-75
2022/07/14 08:17:56;;;;;;;6.45;0.88;;;19.10;65.20;;;;;;5086394;27;20096;-75
2022/07/14 08:20:22;;;;;;;1.80;0.93;;;19.20;65.30;;;;;;5098180;27;20723;-77
2022/07/14 08:22:48;;;;;;;4.05;1.20;;;19.20;65.50;;;;;;5082894;27;20056;-74
2022/07/14 08:25:13;;;;;;;3.05;1.13;;;19.30;66.40;;;;;;5079499;28;20059;-75
2022/07/14 08:27:39;;;;;;;2.03;0.75;;;19.40;67.00;;;;;;5114011;28;20089;-76
2022/07/14 08:30:06;;;;;;;3.90;0.95;;;19.50;65.90;;;;;;5113431;28;20114;-76
2022/07/14 08:32:47;;;;;;;3.15;0.60;;;19.50;65.80;;;;;;5096625;28;20071;-76
2022/07/14 08:35:14;;;;;;;2.13;0.70;;;19.50;65.90;;;;;;5113435;28;20040;-75
2022/07/14 08:37:40;;;;;;;2.97;0.80;;;19.50;65.90;;;;;;5096688;28;20066;-74
2022/07/14 08:40:09;;;;;;;3.97;0.80;;;19.50;66.00;;;;;;5096372;28;20032;-75
2022/07/14 08:42:36;;;;;;;4.20;0.93;;;19.50;66.10;;;;;;5096618;28;20488;-76
2022/07/14 08:45:08;;;;;;;1.60;0.70;;;19.60;65.90;;;;;;5096334;28;20500;-74
2022/07/14 08:47:35;;;;;;;4.22;0.75;;;19.70;65.60;;;;;;5096392;28;20046;-77
2022/07/14 08:50:03;;;;;;;6.22;1.08;;;19.70;65.50;;;;;;5113264;28;20044;-75
2022/07/14 08:52:29;;;;;;;4.78;0.90;;;19.80;65.60;;;;;;5096389;28;20039;-76
2022/07/14 08:54:55;;;;;;;2.20;0.98;;;19.90;65.40;;;;;;5113168;28;20515;-74
2022/07/14 08:57:21;;;;;;;2.50;0.90;;;19.90;65.90;;;;;;5096151;28;20071;-74
2022/07/14 08:59:48;;;;;;;2.25;0.80;;;19.90;65.50;;;;;;5079142;28;20500;-75
2022/07/14 09:02:13;;;;;;;4.57;1.13;;;19.90;65.60;;;;;;5113243;28;20495;-76
2022/07/14 09:04:44;;;;;;;3.28;1.23;;;19.90;66.00;;;;;;5112204;28;20047;-77
2022/07/14 09:07:10;;;;;;;3.72;0.98;;;19.90;65.70;;;;;;5078892;28;20050;-75
2022/07/14 09:09:37;;;;;;;3.15;0.73;;;19.90;65.60;;;;;;5112922;28;20035;-77
2022/07/14 09:12:06;;;;;;;2.00;0.70;;;19.90;65.20;;;;;;5113181;28;20524;-75
2022/07/14 09:17:20;;;;;;;2.55;0.90;;;20.00;65.20;;;;;;5081701;28;20059;-74
2022/07/14 09:20:11;;;;;;;4.60;1.10;;;20.00;65.30;;;;;;5095796;28;20103;-75
2022/07/14 09:22:39;;;;;;;6.28;1.40;;;20.00;65.00;;;;;;5083763;28;20048;-76
2022/07/14 09:25:11;;;;;;;3.38;0.75;;;20.10;65.20;;;;;;5078942;28;20491;-74
2022/07/14 09:27:39;;;;;;;4.88;1.10;;;20.20;64.70;;;;;;5095750;28;20048;-74
2022/07/14 09:30:07;;;;;;;3.35;1.02;;;20.40;64.70;;;;;;5113654;28;20087;-75
2022/07/14 09:32:43;;;;;;;2.22;0.60;;;20.50;64.60;;;;;;5095540;28;20046;-77
2022/07/14 09:35:11;;;;;;;5.80;0.85;;;20.50;63.20;;;;;;5078884;28;20040;-75
2022/07/14 09:37:38;;;;;;;3.05;1.35;;;20.50;62.50;;;;;;5112470;28;20480;-74
2022/07/14 09:40:06;;;;;;;2.10;0.70;;;20.40;61.50;;;;;;5095462;28;20459;-77
2022/07/14 09:42:57;;;;;;;4.38;0.90;;;20.40;62.70;;;;;;5113678;28;20036;-74
2022/07/14 09:45:30;;;;;;;4.47;1.20;;;20.40;62.90;;;;;;5113573;28;20491;-75
2022/07/14 09:48:09;;;;;;;3.90;0.85;;;20.40;63.10;;;;;;5078396;28;20079;-74
2022/07/14 09:50:42;;;;;;;3.95;0.90;;;20.40;62.90;;;;;;5112327;28;20481;-75
2022/07/14 09:53:14;;;;;;;1.38;0.60;;;20.40;63.30;;;;;;5095210;28;20112;-74
2022/07/14 09:55:48;;;;;;;5.70;1.10;;;20.40;62.50;;;;;;5112219;28;20488;-74
2022/07/14 09:58:14;;;;;;;2.53;0.70;;;20.40;62.50;;;;;;5078486;28;20050;-75
2022/07/14 10:00:42;;;;;;;4.25;1.00;;;20.40;62.80;;;;;;5112110;28;20097;-74
2022/07/14 10:03:08;;;;;;;4.03;1.02;;;20.40;62.30;;;;;;5078258;28;20054;-75
2022/07/14 10:05:35;;;;;;;7.32;1.73;;;20.50;62.20;;;;;;5078549;28;20047;-75
2022/07/14 10:08:05;;;;;;;3.55;0.77;;;20.50;62.80;;;;;;5078471;28;20506;-75
2022/07/14 10:10:35;;;;;;;3.78;0.88;;;20.60;63.00;;;;;;5113197;28;20113;-75
2022/07/14 10:13:03;;;;;;;2.17;0.77;;;20.70;62.60;;;;;;5095403;28;20057;-74
2022/07/14 10:15:30;;;;;;;3.45;0.75;;;20.90;61.40;;;;;;5095275;28;20053;-76
2022/07/14 10:17:59;;;;;;;2.92;1.05;;;20.90;60.80;;;;;;5115951;28;20039;-80
2022/07/14 10:20:26;;;;;;;1.23;0.52;;;20.80;60.40;;;;;;5082061;28;20051;-77
2022/07/14 10:22:54;;;;;;;6.32;1.25;;;20.70;60.20;;;;;;5082073;28;20051;-77
2022/07/14 10:25:20;;;;;;;2.95;0.60;;;20.70;61.50;;;;;;5099090;28;20055;-77
2022/07/14 10:27:47;;;;;;;3.15;1.23;;;20.70;61.70;;;;;;5115978;28;20095;-77
2022/07/14 10:30:13;;;;;;;3.95;0.70;;;20.60;61.30;;;;;;5115825;28;20051;-78
2022/07/14 10:33:02;;;;;;;4.70;0.80;;;20.50;62.20;;;;;;5115858;28;20039;-78
2022/07/14 10:35:48;;;;;;;2.30;0.80;;;20.60;62.80;;;;;;5115612;28;20058;-76
2022/07/14 10:38:24;;;;;;;2.75;0.75;;;20.60;61.50;;;;;;5117335;28;20096;-76
2022/07/14 10:41:07;;;;;;;1.95;0.52;;;20.50;62.10;;;;;;5115865;28;20123;-76
2022/07/14 10:43:53;;;;;;;2.85;1.00;;;20.50;62.90;;;;;;5115588;28;20055;-76
2022/07/14 10:47:15;;;;;;;1.85;0.80;;;20.40;62.50;;;;;;5115736;28;20073;-76
2022/07/14 10:50:07;;;;;;;4.20;0.77;;;20.40;62.40;;;;;;4998110;28;20071;-76
2022/07/14 10:52:36;;;;;;;2.47;0.80;;;20.40;62.00;;;;;;5115394;28;20036;-79
2022/07/14 10:55:19;;;;;;;1.88;0.70;;;20.30;62.50;;;;;;5098319;28;20046;-78
2022/07/14 10:58:05;;;;;;;2.65;0.60;;;20.30;62.00;;;;;;5098733;28;20118;-78
2022/07/14 11:00:55;;;;;;;2.85;1.23;;;20.20;62.30;;;;;;5115550;28;20043;-77
2022/07/14 11:03:33;;;;;;;2.45;0.80;;;20.20;63.00;;;;;;5115388;28;20065;-78
2022/07/14 11:06:08;;;;;;;3.65;0.98;;;20.30;63.80;;;;;;5115366;28;20097;-77
2022/07/14 11:08:42;;;;;;;10.27;1.88;;;20.40;62.90;;;;;;5115105;28;20399;-75
2022/07/14 11:11:27;;;;;;;4.28;1.27;;;20.60;61.80;;;;;;5098188;28;20057;-77
2022/07/14 11:14:01;;;;;;;;;;;20.90;60.20;;;;;;5098777;28;20043;-79
2022/07/14 11:16:50;;;;;;;4.78;1.10;;;21.20;59.90;;;;;;5098494;27;19923;-77
2022/07/14 11:19:41;;;;;;;2.90;1.00;;;21.50;59.40;;;;;;5109293;27;20093;-77
2022/07/14 11:22:18;;;;;;;2.13;0.70;;;21.70;58.20;;;;;;5106003;27;20065;-75
2022/07/14 11:24:56;;;;;;;5.65;1.20;;;21.80;56.40;;;;;;5120375;27;20096;-74
2022/07/14 11:27:36;;;;;;;6.28;1.10;;;21.90;57.10;;;;;;5120032;27;20083;-77
2022/07/14 11:30:30;;;;;;;2.72;0.60;;;22.00;56.30;;;;;;5118576;27;20118;-77
2022/07/14 11:32:58;;;;;;;5.72;1.23;;;22.00;55.20;;;;;;5119222;27;20051;-75
2022/07/14 11:38:28;;;;;;;3.30;0.90;;;22.00;54.40;;;;;;5119376;27;20740;-75
2022/07/14 11:40:55;;;;;;;3.38;0.90;;;22.00;53.80;;;;;;5087148;28;20071;-75
2022/07/14 11:43:30;;;;;;;6.35;1.83;;;22.00;54.60;;;;;;5099717;27;20051;-76
2022/07/14 11:46:01;;;;;;;4.55;0.98;;;22.00;53.40;;;;;;5094168;28;20122;-76
2022/07/14 11:48:32;;;;;;;3.13;1.05;;;22.00;52.20;;;;;;5093976;28;20488;-75
2022/07/14 11:51:17;;;;;;;2.85;0.93;;;22.00;52.50;;;;;;5094069;28;20048;-74
2022/07/14 11:53:43;;;;;;;2.25;0.70;;;22.00;52.30;;;;;;5092664;28;20105;-74
2022/07/14 11:56:10;;;;;;;2.75;0.70;;;22.00;52.40;;;;;;5093620;28;20040;-74
2022/07/14 11:58:40;;;;;;;2.78;0.70;;;22.20;51.90;;;;;;5093464;28;20055;-74
2022/07/14 12:01:07;;;;;;;3.40;0.85;;;22.40;52.50;;;;;;5094704;28;20043;-77
2022/07/14 12:03:34;;;;;;;4.28;0.80;;;22.50;52.40;;;;;;5094643;28;20056;-73
2022/07/14 12:06:02;;;;;;;2.70;0.70;;;22.70;51.80;;;;;;5094610;28;20036;-75
2022/07/14 12:08:35;;;;;;;1.98;0.60;;;22.80;51.20;;;;;;5093204;28;20120;-75
2022/07/14 12:11:08;;;;;;;4.65;0.93;;;22.90;49.20;;;;;;5093294;28;20040;-74
2022/07/14 12:13:48;;;;;;;3.72;0.88;;;23.20;50.10;;;;;;5093510;28;20047;-76
2022/07/14 12:16:15;;;;;;;2.55;0.63;;;23.40;50.00;;;;;;5093479;28;20051;-73
2022/07/14 12:18:40;;;;;;;2.40;0.70;;;23.60;49.50;;;;;;5093004;28;20044;-73
2022/07/14 12:21:07;;;;;;;2.08;0.68;;;23.70;48.00;;;;;;5093366;28;20067;-75
2022/07/14 12:23:32;;;;;;;2.78;0.70;;;23.70;46.80;;;;;;5075996;28;20102;-74
2022/07/14 12:26:01;;;;;;;2.33;0.80;;;23.50;47.60;;;;;;5076175;28;20087;-79
2022/07/14 12:28:27;;;;;;;2.03;0.85;;;23.40;47.80;;;;;;5059324;28;20502;-73
2022/07/14 12:30:59;;;;;;;2.20;0.75;;;23.30;48.20;;;;;;5093086;28;20384;-77
2022/07/14 12:33:39;;;;;;;2.80;0.80;;;23.40;48.20;;;;;;5093212;28;20055;-74
2022/07/14 12:36:12;;;;;;;4.60;0.93;;;23.50;47.30;;;;;;5093168;28;20430;-75
2022/07/14 12:38:39;;;;;;;2.20;0.43;;;23.60;47.30;;;;;;5092727;28;20077;-74
2022/07/14 12:41:06;;;;;;;1.73;0.60;;;23.70;47.00;;;;;;5091645;28;20048;-77
2022/07/14 12:43:34;;;;;;;1.75;0.63;;;23.70;46.20;;;;;;5092785;28;20087;-74
2022/07/14 12:46:09;;;;;;;1.17;0.50;;;23.90;46.30;;;;;;5092848;28;20551;-78
2022/07/14 12:48:50;;;;;;;2.67;0.77;;;24.10;46.50;;;;;;5058971;28;20051;-75
2022/07/14 12:51:33;;;;;;;1.48;0.55;;;24.20;45.80;;;;;;5092897;28;20035;-73
2022/07/14 12:53:59;;;;;;;2.73;0.60;;;24.20;45.90;;;;;;5092494;28;20140;-74
2022/07/14 12:56:26;;;;;;;1.95;0.68;;;24.10;45.80;;;;;;5058959;28;20084;-73
2022/07/14 12:58:52;;;;;;;3.03;0.57;;;24.00;46.30;;;;;;5092614;28;20101;-76
2022/07/14 13:01:18;;;;;;;2.55;0.55;;;24.00;45.80;;;;;;5059019;28;20403;-74
2022/07/14 13:03:56;;;;;;;3.67;0.75;;;23.90;45.70;;;;;;5093552;28;20476;-76